createdAt,value
2023-01-19T00:02:54.979Z,5.17
2023-01-19T00:06:07.978Z,5.15
2023-01-19T00:09:22.287Z,5.12
2023-01-19T00:12:34.915Z,5.06
2023-01-19T00:15:47.210Z,4.99
2023-01-19T00:18:59.803Z,4.97
2023-01-19T00:22:12.103Z,4.87
2023-01-19T00:25:24.926Z,4.99
2023-01-19T00:28:37.330Z,4.99
2023-01-19T00:31:50.358Z,4.97
2023-01-19T00:35:02.711Z,4.92
2023-01-19T00:38:15.349Z,4.93
2023-01-19T00:41:46.260Z,4.82
2023-01-19T00:44:58.912Z,4.97
2023-01-19T00:48:11.284Z,4.83
2023-01-19T00:51:23.922Z,4.68
2023-01-19T00:54:37.944Z,4.74
2023-01-19T00:57:50.614Z,4.71
2023-01-19T01:01:04.854Z,4.76
2023-01-19T01:04:17.644Z,4.78
2023-01-19T01:07:30.188Z,4.94
2023-01-19T01:10:42.777Z,4.80
2023-01-19T01:13:55.096Z,4.75
2023-01-19T01:17:11.263Z,4.74
2023-01-19T01:20:26.989Z,4.72
2023-01-19T01:23:40.473Z,4.65
2023-01-19T01:26:52.804Z,4.69
2023-01-19T01:30:06.717Z,4.79
2023-01-19T01:33:41.113Z,4.69
2023-01-19T01:36:52.387Z,4.75
2023-01-19T01:40:05.934Z,4.69
2023-01-19T01:43:18.828Z,4.59
2023-01-19T01:46:31.392Z,4.43
2023-01-19T01:49:44.037Z,4.49
2023-01-19T01:53:06.883Z,4.53
2023-01-19T01:56:23.980Z,4.44
2023-01-19T01:59:40.114Z,4.54
2023-01-19T02:02:54.953Z,4.57
2023-01-19T02:06:07.759Z,4.38
2023-01-19T02:09:38.717Z,4.31
2023-01-19T02:13:10.237Z,4.36
2023-01-19T02:16:22.622Z,4.29
2023-01-19T02:19:39.591Z,4.27
2023-01-19T02:22:51.944Z,4.43
2023-01-19T02:26:04.906Z,4.44
2023-01-19T02:29:18.642Z,4.30
2023-01-19T02:32:31.285Z,4.53
2023-01-19T02:35:43.640Z,4.35
2023-01-19T02:38:56.593Z,4.15
2023-01-19T02:42:11.734Z,4.06
2023-01-19T02:45:24.351Z,3.97
2023-01-19T02:48:36.685Z,3.97
2023-01-19T02:51:49.416Z,3.88
2023-01-19T02:55:10.879Z,3.86
2023-01-19T02:58:29.411Z,3.85
2023-01-19T03:02:12.840Z,3.83
2023-01-19T03:06:04.071Z,3.80
2023-01-19T03:09:29.153Z,3.67
2023-01-19T03:12:46.271Z,3.67
2023-01-19T03:16:24.704Z,3.60
2023-01-19T03:19:39.760Z,3.68
2023-01-19T03:22:54.794Z,3.67
2023-01-19T03:26:09.709Z,3.65
2023-01-19T03:29:22.064Z,3.46
2023-01-19T03:32:37.432Z,3.50
2023-01-19T03:35:50.721Z,3.46
2023-01-19T03:39:04.348Z,3.49
2023-01-19T03:42:16.671Z,3.40
2023-01-19T03:45:30.913Z,3.30
2023-01-19T03:48:43.277Z,3.37
2023-01-19T03:51:57.117Z,3.37
2023-01-19T03:55:10.403Z,3.37
2023-01-19T03:58:23.047Z,3.34
2023-01-19T04:01:35.528Z,3.30
2023-01-19T04:04:48.439Z,3.26
2023-01-19T04:08:00.772Z,3.28
2023-01-19T04:11:13.364Z,3.29
2023-01-19T04:14:25.685Z,3.25
2023-01-19T04:17:39.159Z,3.31
2023-01-19T04:20:51.456Z,3.27
2023-01-19T04:24:04.190Z,3.13
2023-01-19T04:27:16.757Z,3.28
2023-01-19T04:30:29.433Z,3.09
2023-01-19T04:33:41.733Z,3.17
2023-01-19T04:36:56.007Z,3.22
2023-01-19T04:40:09.095Z,3.05
2023-01-19T04:43:21.952Z,3.06
2023-01-19T04:46:35.009Z,3.10
2023-01-19T04:49:47.625Z,3.08
2023-01-19T04:53:00.980Z,2.98
2023-01-19T04:56:13.786Z,2.85
2023-01-19T04:59:26.115Z,2.82
2023-01-19T05:02:39.012Z,2.71
2023-01-19T05:05:51.440Z,2.73
2023-01-19T05:09:04.742Z,2.63
2023-01-19T05:12:17.675Z,2.49
2023-01-19T05:15:30.354Z,2.44
2023-01-19T05:18:42.783Z,2.42
2023-01-19T05:21:55.428Z,2.35
2023-01-19T05:25:11.485Z,2.40
2023-01-19T05:28:24.134Z,2.37
2023-01-19T05:31:37.330Z,2.62
2023-01-19T05:34:50.012Z,2.53
2023-01-19T05:38:02.474Z,2.44
2023-01-19T05:41:15.207Z,2.41
2023-01-19T05:44:27.552Z,2.37
2023-01-19T05:47:40.163Z,2.34
2023-01-19T05:50:57.358Z,2.23
2023-01-19T05:54:10.196Z,2.18
2023-01-19T05:57:22.948Z,2.25
2023-01-19T06:00:35.561Z,2.12
2023-01-19T06:03:48.913Z,2.19
2023-01-19T06:07:02.374Z,2.19
2023-01-19T06:10:15.378Z,2.33
2023-01-19T06:13:27.774Z,2.59
2023-01-19T06:16:40.616Z,2.42
2023-01-19T06:19:52.954Z,2.45
2023-01-19T06:23:05.539Z,2.65
2023-01-19T06:26:17.917Z,2.63
2023-01-19T06:29:30.642Z,2.63
2023-01-19T06:32:43.130Z,2.59
2023-01-19T06:35:55.854Z,2.82
2023-01-19T06:39:09.709Z,2.79
2023-01-19T06:42:22.420Z,2.99
2023-01-19T06:45:34.903Z,2.90
2023-01-19T06:48:48.114Z,2.80
2023-01-19T06:52:00.489Z,2.82
2023-01-19T06:55:14.568Z,2.85
2023-01-19T06:58:27.557Z,2.81
2023-01-19T07:01:40.422Z,2.99
2023-01-19T07:04:52.867Z,2.92
2023-01-19T07:08:06.584Z,2.93
2023-01-19T07:11:23.612Z,2.99
2023-01-19T07:14:41.745Z,2.83
2023-01-19T07:17:57.301Z,2.94
2023-01-19T07:21:09.947Z,2.93
2023-01-19T07:24:22.309Z,2.95
2023-01-19T07:27:34.981Z,3.05
2023-01-19T07:30:52.529Z,2.95
2023-01-19T07:34:05.516Z,3.03
2023-01-19T07:37:17.863Z,3.07
2023-01-19T07:40:31.153Z,3.22
2023-01-19T07:43:43.679Z,3.24
2023-01-19T07:46:56.440Z,3.20
2023-01-19T07:50:11.151Z,3.30
2023-01-19T07:53:23.801Z,3.23
2023-01-19T07:56:36.181Z,3.27
2023-01-19T07:59:48.949Z,3.27
2023-01-19T08:03:03.352Z,3.24
2023-01-19T08:06:25.786Z,3.42
2023-01-19T08:09:38.171Z,3.39
2023-01-19T08:12:50.833Z,3.46
2023-01-19T08:16:03.315Z,3.44
2023-01-19T08:19:16.012Z,3.31
2023-01-19T08:22:28.418Z,3.37
2023-01-19T08:25:42.413Z,3.55
2023-01-19T08:28:57.634Z,3.49
2023-01-19T08:32:10.369Z,3.49
2023-01-19T08:35:23.823Z,3.49
2023-01-19T08:38:36.795Z,3.66
2023-01-19T08:41:49.895Z,3.75
2023-01-19T08:45:02.469Z,3.72
2023-01-19T08:48:20.319Z,3.71
2023-01-19T08:51:33.104Z,3.58
2023-01-19T08:54:46.313Z,3.50
2023-01-19T08:58:00.080Z,3.60
2023-01-19T09:01:17.111Z,3.68
2023-01-19T09:04:32.206Z,3.72
2023-01-19T09:07:51.763Z,3.77
2023-01-19T09:11:05.301Z,3.75
2023-01-19T09:14:17.670Z,3.70
2023-01-19T09:17:30.395Z,3.85
2023-01-19T09:20:43.303Z,3.76
2023-01-19T09:23:56.349Z,4.01
2023-01-19T09:27:08.675Z,3.90
2023-01-19T09:30:21.371Z,3.92
2023-01-19T09:33:34.003Z,3.98
2023-01-19T09:36:47.014Z,4.01
2023-01-19T09:39:59.405Z,4.06
2023-01-19T09:43:18.411Z,3.99
2023-01-19T09:46:38.980Z,4.12
2023-01-19T09:50:23.131Z,4.12
2023-01-19T09:53:45.548Z,4.07
2023-01-19T09:56:58.200Z,3.90
2023-01-19T10:00:16.376Z,4.32
2023-01-19T10:03:29.138Z,4.27
2023-01-19T10:06:42.746Z,4.22
2023-01-19T10:10:10.481Z,4.20
2023-01-19T10:13:44.021Z,4.18
2023-01-19T10:17:09.193Z,4.20
2023-01-19T10:20:27.273Z,4.03
2023-01-19T10:23:55.091Z,4.17
2023-01-19T10:27:13.785Z,4.17
2023-01-19T10:30:28.051Z,4.13
2023-01-19T10:33:40.406Z,4.15
2023-01-19T10:36:56.944Z,4.16
2023-01-19T10:40:09.225Z,4.24
2023-01-19T10:43:48.413Z,4.22
2023-01-19T10:47:01.376Z,4.29
2023-01-19T10:50:28.010Z,4.12
2023-01-19T10:53:41.886Z,4.26
2023-01-19T10:57:03.557Z,4.13
2023-01-19T11:00:37.910Z,4.16
2023-01-19T11:03:50.812Z,4.05
2023-01-19T11:07:14.530Z,4.07
2023-01-19T11:10:31.047Z,4.14
2023-01-19T11:13:45.234Z,4.10
2023-01-19T11:16:58.162Z,4.08
2023-01-19T11:20:33.674Z,3.96
2023-01-19T11:23:47.030Z,4.14
2023-01-19T11:27:03.751Z,3.82
2023-01-19T11:30:24.442Z,3.90
2023-01-19T11:33:41.181Z,3.67
2023-01-19T11:37:01.371Z,3.62
2023-01-19T11:40:15.740Z,3.37
2023-01-19T11:43:39.709Z,3.33
2023-01-19T11:47:02.708Z,3.30
2023-01-19T11:50:23.734Z,3.14
2023-01-19T11:53:36.555Z,3.23
2023-01-19T11:56:51.269Z,3.21
2023-01-19T12:00:05.255Z,3.09
2023-01-19T12:03:22.873Z,3.06
2023-01-19T12:06:36.473Z,3.04
2023-01-19T12:09:51.686Z,3.18
2023-01-19T12:13:04.416Z,3.19
2023-01-19T12:16:24.707Z,3.07
2023-01-19T12:19:44.243Z,3.05
2023-01-19T12:23:24.172Z,2.99
2023-01-19T12:26:37.439Z,3.01
2023-01-19T12:30:06.029Z,2.95
2023-01-19T12:33:37.605Z,2.94
2023-01-19T12:36:50.428Z,2.99
2023-01-19T12:40:17.358Z,3.06
2023-01-19T12:43:29.716Z,3.11
2023-01-19T12:46:50.161Z,2.99
2023-01-19T12:50:13.431Z,3.14
2023-01-19T12:53:27.162Z,3.19
2023-01-19T12:56:39.536Z,3.10
2023-01-19T12:59:56.607Z,3.30
2023-01-19T13:03:18.226Z,3.39
2023-01-19T13:07:05.970Z,3.34
2023-01-19T13:10:55.473Z,3.30
2023-01-19T13:14:14.352Z,3.38
2023-01-19T13:17:27.210Z,3.29
2023-01-19T13:20:44.851Z,3.29
2023-01-19T13:24:00.724Z,3.38
2023-01-19T13:27:13.293Z,3.28
2023-01-19T13:30:27.513Z,3.45
2023-01-19T13:33:49.188Z,3.48
2023-01-19T13:37:02.099Z,3.59
2023-01-19T13:40:25.747Z,3.56
2023-01-19T13:43:38.214Z,3.42
2023-01-19T13:46:51.710Z,3.49
2023-01-19T13:50:05.607Z,3.48
2023-01-19T13:53:19.409Z,3.25
2023-01-19T13:56:32.705Z,3.16
2023-01-19T13:59:45.394Z,3.32
2023-01-19T14:03:13.619Z,3.31
2023-01-19T14:06:41.754Z,3.40
2023-01-19T14:10:06.032Z,3.37
2023-01-19T14:13:25.111Z,3.36
2023-01-19T14:16:37.666Z,3.26
2023-01-19T14:19:51.123Z,3.37
2023-01-19T14:23:04.015Z,3.37
2023-01-19T14:26:38.603Z,3.07
2023-01-19T14:29:53.745Z,3.08
2023-01-19T14:33:11.351Z,2.97
2023-01-19T14:36:34.389Z,3.04
2023-01-19T14:39:57.786Z,2.99
2023-01-19T14:43:10.918Z,3.04
2023-01-19T14:46:24.469Z,3.05
2023-01-19T14:49:40.986Z,3.01
2023-01-19T14:53:04.249Z,2.97
2023-01-19T14:56:30.360Z,2.99
2023-01-19T14:59:48.362Z,3.15
2023-01-19T15:03:00.816Z,3.15
2023-01-19T15:06:13.759Z,3.09
2023-01-19T15:09:27.078Z,3.20
2023-01-19T15:12:39.738Z,3.16
2023-01-19T15:15:52.167Z,2.98
2023-01-19T15:19:04.802Z,3.05
2023-01-19T15:22:17.146Z,3.08
2023-01-19T15:25:31.580Z,3.06
2023-01-19T15:28:44.172Z,3.10
2023-01-19T15:31:56.838Z,2.90
2023-01-19T15:35:16.620Z,2.85
2023-01-19T15:38:29.274Z,2.74
2023-01-19T15:41:41.658Z,2.68
2023-01-19T15:44:54.282Z,2.64
2023-01-19T15:48:08.073Z,2.59
2023-01-19T15:51:22.215Z,2.62
2023-01-19T15:54:34.581Z,2.71
2023-01-19T15:57:47.846Z,2.68
2023-01-19T16:01:00.328Z,2.69
2023-01-19T16:04:13.271Z,2.62
2023-01-19T16:07:25.677Z,2.68
2023-01-19T16:10:38.691Z,2.67
2023-01-19T16:13:51.212Z,2.70
2023-01-19T16:17:05.193Z,2.78
2023-01-19T16:20:18.459Z,2.68
2023-01-19T16:23:31.137Z,2.80
2023-01-19T16:26:43.465Z,2.78
2023-01-19T16:29:57.186Z,2.72
2023-01-19T16:33:11.591Z,2.69
2023-01-19T16:36:26.530Z,2.74
2023-01-19T16:39:38.876Z,2.64
2023-01-19T16:42:51.528Z,2.61
2023-01-19T16:46:04.435Z,2.56
2023-01-19T16:49:21.869Z,2.59
2023-01-19T16:52:34.255Z,2.59
2023-01-19T16:55:48.560Z,2.60
2023-01-19T16:59:00.937Z,2.52
2023-01-19T17:02:13.612Z,2.51
2023-01-19T17:05:26.019Z,2.54
2023-01-19T17:08:38.850Z,2.51
2023-01-19T17:11:51.255Z,2.53
2023-01-19T17:15:04.040Z,2.44
2023-01-19T17:18:16.394Z,2.53
2023-01-19T17:21:29.098Z,2.61
2023-01-19T17:24:43.268Z,2.57
2023-01-19T17:27:55.999Z,2.50
2023-01-19T17:31:14.156Z,2.53
2023-01-19T17:34:27.028Z,2.57
2023-01-19T17:37:39.386Z,2.61
2023-01-19T17:40:51.975Z,2.53
2023-01-19T17:44:05.076Z,2.65
2023-01-19T17:47:17.813Z,2.56
2023-01-19T17:50:30.410Z,2.50
2023-01-19T17:53:43.136Z,2.47
2023-01-19T17:56:56.320Z,2.42
2023-01-19T18:00:09.645Z,2.41
2023-01-19T18:03:24.668Z,2.34
2023-01-19T18:06:37.827Z,2.30
2023-01-19T18:09:50.193Z,2.32
2023-01-19T18:13:02.755Z,2.29
2023-01-19T18:16:17.430Z,2.27
2023-01-19T18:19:30.159Z,2.29
2023-01-19T18:22:43.024Z,2.26
2023-01-19T18:26:05.691Z,2.12
2023-01-19T18:29:19.374Z,2.09
2023-01-19T18:32:34.235Z,2.05
2023-01-19T18:35:46.698Z,2.04
2023-01-19T18:38:59.390Z,2.03
2023-01-19T18:42:11.817Z,2.08
2023-01-19T18:45:24.453Z,2.00
2023-01-19T18:48:37.479Z,2.01
2023-01-19T18:51:50.148Z,2.01
2023-01-19T18:55:05.624Z,2.00
2023-01-19T18:58:18.382Z,2.00
2023-01-19T19:01:33.416Z,2.03
2023-01-19T19:04:46.159Z,1.97
2023-01-19T19:07:58.557Z,1.91
2023-01-19T19:11:13.938Z,1.96
2023-01-19T19:14:26.435Z,1.94
2023-01-19T19:17:39.069Z,1.91
2023-01-19T19:20:51.360Z,1.95
2023-01-19T19:24:04.203Z,1.82
2023-01-19T19:27:17.791Z,1.82
2023-01-19T19:30:30.876Z,1.81
2023-01-19T19:33:43.218Z,1.82
2023-01-19T19:36:55.845Z,1.86
2023-01-19T19:40:09.013Z,1.80
2023-01-19T19:43:22.202Z,1.86
2023-01-19T19:46:34.623Z,1.79
2023-01-19T19:49:47.274Z,1.80
2023-01-19T19:53:00.251Z,1.74
2023-01-19T19:56:15.956Z,1.91
2023-01-19T19:59:28.308Z,1.83
2023-01-19T20:02:40.964Z,1.92
2023-01-19T20:05:53.535Z,1.89
2023-01-19T20:09:07.051Z,1.78
2023-01-19T20:12:19.643Z,1.73
2023-01-19T20:15:32.259Z,1.68
2023-01-19T20:18:48.567Z,1.71
2023-01-19T20:22:00.965Z,1.65
2023-01-19T20:25:13.676Z,1.62
2023-01-19T20:28:25.988Z,1.61
2023-01-19T20:31:41.385Z,1.60
2023-01-19T20:34:53.779Z,1.65
2023-01-19T20:38:06.937Z,1.57
2023-01-19T20:41:19.404Z,1.55
2023-01-19T20:44:32.037Z,1.65
2023-01-19T20:47:44.460Z,1.55
2023-01-19T20:51:04.998Z,1.46
2023-01-19T20:54:18.218Z,1.47
2023-01-19T20:57:30.844Z,1.49
2023-01-19T21:00:43.198Z,1.50
2023-01-19T21:03:55.807Z,1.44
2023-01-19T21:07:09.088Z,1.41
2023-01-19T21:10:22.259Z,1.40
2023-01-19T21:13:34.671Z,1.47
2023-01-19T21:16:48.261Z,1.36
2023-01-19T21:20:00.622Z,1.35
2023-01-19T21:23:13.206Z,1.35
2023-01-19T21:26:25.624Z,1.47
2023-01-19T21:29:38.242Z,1.55
2023-01-19T21:32:50.569Z,1.52
2023-01-19T21:36:03.307Z,1.65
2023-01-19T21:39:17.340Z,1.81
2023-01-19T21:42:30.208Z,1.73
2023-01-19T21:45:43.313Z,1.81
2023-01-19T21:48:57.099Z,1.63
2023-01-19T21:52:09.455Z,1.64
2023-01-19T21:55:22.110Z,1.58
2023-01-19T21:58:34.474Z,1.88
2023-01-19T22:01:47.163Z,1.78
2023-01-19T22:04:59.839Z,1.75
2023-01-19T22:08:12.170Z,1.75
2023-01-19T22:11:25.241Z,1.65
2023-01-19T22:14:37.580Z,1.79
2023-01-19T22:17:50.202Z,1.84
2023-01-19T22:21:19.194Z,1.83
2023-01-19T22:24:31.826Z,1.83
2023-01-19T22:27:44.164Z,1.81
2023-01-19T22:31:06.667Z,1.71
2023-01-19T22:34:19.032Z,1.88
2023-01-19T22:37:35.637Z,1.87
2023-01-19T22:40:47.960Z,1.91
2023-01-19T22:44:02.099Z,1.91
2023-01-19T22:47:14.443Z,1.79
2023-01-19T22:50:27.084Z,1.62
2023-01-19T22:53:39.560Z,1.57
2023-01-19T22:56:52.171Z,1.64
2023-01-19T23:00:06.799Z,1.68
2023-01-19T23:03:19.425Z,1.71
2023-01-19T23:06:33.108Z,1.85
2023-01-19T23:09:45.719Z,1.78
2023-01-19T23:12:58.065Z,1.75
2023-01-19T23:16:10.861Z,1.87
2023-01-19T23:19:23.178Z,1.97
2023-01-19T23:22:35.892Z,1.97
2023-01-19T23:25:48.255Z,1.81
2023-01-19T23:29:01.387Z,1.94
2023-01-19T23:32:13.711Z,1.85
2023-01-19T23:35:26.298Z,1.93
2023-01-19T23:38:38.800Z,2.00
2023-01-19T23:41:51.425Z,1.85
2023-01-19T23:45:04.072Z,1.72
2023-01-19T23:48:16.723Z,1.87
2023-01-19T23:51:30.099Z,1.73
2023-01-19T23:54:42.774Z,1.64
2023-01-19T23:57:55.161Z,1.62
